Time;durP1;ratioP1;P1;durP2;ratioP2;P2;SDS_P1;SDS_P2;PMS_P1;PMS_P2;Temp;Humidity;BMP_temperature;BMP_pressure;BME280_temperature;BME280_humidity;BME280_pressure;Samples;Min_cycle;Max_cycle;Signal;HPM_P1;HPM_P2
2023/12/27 00:00:24;;;;;;;5.55;3.63;;;;;;;5.19;100.00;93485.44;2057115;28;20646;-79
2023/12/27 00:01:27;;;;;;;5.45;3.47;;;;;;;5.15;100.00;93487.31;2080600;27;20442;-79
2023/12/27 00:02:28;;;;;;;8.30;3.05;;;;;;;5.08;100.00;93497.88;2107074;27;20074;-81
2023/12/27 00:03:29;;;;;;;6.03;3.33;;;;;;;5.15;100.00;93490.72;2098464;27;20039;-81
2023/12/27 00:04:30;;;;;;;4.43;2.95;;;;;;;5.05;100.00;93502.78;2090043;28;20027;-82
2023/12/27 00:05:31;;;;;;;5.45;3.10;;;;;;;5.53;100.00;93504.50;2077372;28;20024;-80
2023/12/27 00:06:32;;;;;;;4.53;3.13;;;;;;;5.52;100.00;93514.34;2092234;28;20755;-80
2023/12/27 00:07:33;;;;;;;6.82;3.38;;;;;;;5.46;100.00;93515.84;2098962;28;20500;-80
2023/12/27 00:08:35;;;;;;;4.78;3.10;;;;;;;5.38;100.00;93514.28;2103474;28;20063;-81
2023/12/27 00:09:36;;;;;;;3.13;2.83;;;;;;;5.22;100.00;93519.13;2114170;28;20114;-80
2023/12/27 00:10:37;;;;;;;5.10;3.15;;;;;;;5.32;100.00;93520.31;2114747;28;20050;-81
2023/12/27 00:11:38;;;;;;;6.13;3.20;;;;;;;5.14;100.00;93515.69;2114436;28;20047;-79
2023/12/27 00:12:39;;;;;;;5.85;2.90;;;;;;;4.95;100.00;93514.06;2106040;28;20591;-79
2023/12/27 00:13:40;;;;;;;5.30;2.97;;;;;;;5.16;100.00;93517.97;2106690;28;20496;-79
2023/12/27 00:14:41;;;;;;;6.10;3.03;;;;;;;5.20;100.00;93516.84;2106381;28;20047;-81
2023/12/27 00:15:45;;;;;;;4.63;3.10;;;;;;;5.11;100.00;93513.03;2105901;28;20028;-79
2023/12/27 00:16:46;;;;;;;7.68;3.40;;;;;;;5.07;100.00;93507.72;2107047;28;20031;-79
2023/12/27 00:17:47;;;;;;;6.75;3.17;;;;;;;5.09;100.00;93507.31;2101156;28;20048;-78
2023/12/27 00:18:48;;;;;;;3.20;2.90;;;;;;;4.95;100.00;93506.13;2105143;28;20683;-80
2023/12/27 00:19:49;;;;;;;4.50;2.83;;;;;;;4.97;100.00;93506.53;2113379;28;20076;-80
2023/12/27 00:20:49;;;;;;;3.50;2.80;;;;;;;4.99;100.00;93508.78;2122400;27;20052;-80
2023/12/27 00:21:50;;;;;;;5.18;2.70;;;;;;;4.86;100.00;93500.38;2117962;27;20027;-79
2023/12/27 00:22:51;;;;;;;6.38;2.97;;;;;;;4.59;100.00;93499.09;2097725;28;20036;-79
2023/12/27 00:23:52;;;;;;;5.60;2.33;;;;;;;4.83;100.00;93505.66;2089414;28;20507;-78
2023/12/27 00:24:53;;;;;;;5.13;2.78;;;;;;;4.90;100.00;93495.13;2113925;28;20057;-80
2023/12/27 00:25:55;;;;;;;4.65;2.42;;;;;;;4.92;100.00;93490.22;2123200;27;20034;-79
2023/12/27 00:26:56;;;;;;;7.72;2.88;;;;;;;4.93;100.00;93495.16;2114383;28;20055;-78
2023/12/27 00:27:56;;;;;;;3.80;2.33;;;;;;;4.92;100.00;93495.53;2105762;28;20324;-78
2023/12/27 00:28:57;;;;;;;3.78;2.70;;;;;;;4.97;100.00;93495.16;2114858;28;20031;-78
2023/12/27 00:29:58;;;;;;;6.07;2.40;;;;;;;5.03;100.00;93498.97;2114331;28;20086;-78
2023/12/27 00:30:59;;;;;;;5.32;2.53;;;;;;;4.89;100.00;93501.56;2122418;27;20023;-79
2023/12/27 00:32:00;;;;;;;4.03;2.28;;;;;;;4.96;100.00;93493.63;2110716;28;20489;-79
2023/12/27 00:33:01;;;;;;;4.63;2.70;;;;;;;4.93;100.00;93491.75;2084531;28;20026;-79
2023/12/27 00:34:03;;;;;;;4.68;2.67;;;;;;;4.97;100.00;93489.88;2040976;28;20024;-80
2023/12/27 00:35:04;;;;;;;6.35;3.00;;;;;;;5.10;100.00;93485.78;2018936;28;20142;-79
2023/12/27 00:36:06;;;;;;;4.65;2.85;;;;;;;5.07;100.00;93488.41;2034043;28;21636;-78
2023/12/27 00:37:09;;;;;;;3.42;2.53;;;;;;;5.00;100.00;93492.53;2037215;28;21170;-79
2023/12/27 00:38:10;;;;;;;5.30;2.60;;;;;;;4.94;100.00;93488.72;2040609;28;20032;-79
2023/12/27 00:39:11;;;;;;;6.45;2.88;;;;;;;4.95;100.00;93482.28;2032592;28;20071;-79
2023/12/27 00:40:12;;;;;;;3.92;2.47;;;;;;;5.04;100.00;93485.34;2043895;28;20024;-79
2023/12/27 00:41:13;;;;;;;3.28;2.33;;;;;;;5.11;100.00;93473.28;2058608;27;20138;-79
2023/12/27 00:42:14;;;;;;;3.10;1.70;;;;;;;4.85;100.00;93482.22;2057961;28;23039;-79
2023/12/27 00:43:15;;;;;;;4.68;2.28;;;;;;;4.88;100.00;93492.09;2065986;28;20768;-78
2023/12/27 00:44:16;;;;;;;6.97;2.22;;;;;;;4.90;100.00;93489.81;2064642;28;20054;-80
2023/12/27 00:45:17;;;;;;;4.65;2.72;;;;;;;5.07;100.00;93491.81;2062156;28;20126;-79
2023/12/27 00:46:18;;;;;;;4.95;2.30;;;;;;;4.98;100.00;93494.78;2076149;28;20034;-78
2023/12/27 00:47:19;;;;;;;5.57;2.30;;;;;;;5.09;100.00;93494.84;2099757;27;20020;-78
2023/12/27 00:48:20;;;;;;;3.80;2.30;;;;;;;5.17;100.00;93498.28;2098727;28;20488;-79
2023/12/27 00:49:22;;;;;;;4.60;2.10;;;;;;;5.11;100.00;93489.94;2102742;28;20021;-78
2023/12/27 00:50:22;;;;;;;4.82;2.53;;;;;;;5.19;100.00;93496.78;2105309;28;20106;-79
2023/12/27 00:51:23;;;;;;;3.13;2.22;;;;;;;5.22;100.00;93485.47;2121722;27;20019;-79
2023/12/27 00:52:24;;;;;;;4.75;2.05;;;;;;;5.15;100.00;93477.47;2131774;27;20030;-79
2023/12/27 00:53:25;;;;;;;3.35;2.22;;;;;;;5.10;100.00;93480.47;2106231;28;20102;-80
2023/12/27 00:54:26;;;;;;;3.85;2.40;;;;;;;5.10;100.00;93485.78;2111834;28;20464;-79
2023/12/27 00:55:27;;;;;;;4.10;2.28;;;;;;;5.11;100.00;93484.63;2113193;28;20034;-77
2023/12/27 00:56:28;;;;;;;2.97;2.10;;;;;;;4.84;100.00;93486.78;2105836;28;20028;-78
2023/12/27 00:57:32;;;;;;;4.07;2.08;;;;;;;4.91;100.00;93489.44;2104939;28;20089;-77
2023/12/27 00:58:34;;;;;;;2.53;1.90;;;;;;;4.95;100.00;93492.13;2106722;27;20032;-81
2023/12/27 00:59:34;;;;;;;3.88;1.98;;;;;;;4.92;100.00;93490.97;2106593;28;20053;-80
2023/12/27 01:00:35;;;;;;;4.53;2.13;;;;;;;4.87;100.00;93488.66;2105129;28;20019;-79
2023/12/27 01:01:37;;;;;;;3.97;2.10;;;;;;;5.02;100.00;93484.97;2114037;28;20024;-79
2023/12/27 01:02:39;;;;;;;7.35;2.38;;;;;;;4.87;100.00;93482.59;2097600;28;20108;-78
2023/12/27 01:03:40;;;;;;;3.35;1.95;;;;;;;5.00;100.00;93497.06;2104974;28;20035;-78
2023/12/27 01:04:42;;;;;;;4.53;2.50;;;;;;;5.02;100.00;93487.63;2118075;28;20407;-79
2023/12/27 01:05:42;;;;;;;5.00;2.15;;;;;;;4.93;100.00;93475.84;2100453;28;20024;-80
2023/12/27 01:06:43;;;;;;;3.28;2.22;;;;;;;4.73;100.00;93478.00;2096582;28;20021;-80
2023/12/27 01:07:44;;;;;;;4.82;2.13;;;;;;;4.82;100.00;93480.31;2105301;28;20028;-81
2023/12/27 01:08:45;;;;;;;4.22;2.10;;;;;;;4.67;100.00;93482.13;2112365;27;20027;-81
2023/12/27 01:09:46;;;;;;;4.25;1.92;;;;;;;4.76;100.00;93485.19;2130598;27;20022;-80
2023/12/27 01:10:47;;;;;;;5.60;1.98;;;;;;;4.76;100.00;93483.31;2109333;28;21498;-79
2023/12/27 01:11:48;;;;;;;2.85;2.15;;;;;;;4.87;100.00;93493.19;2098823;28;20081;-79
2023/12/27 01:12:49;;;;;;;5.90;2.33;;;;;;;4.69;100.00;93487.78;2105675;28;20028;-78
2023/12/27 01:13:50;;;;;;;3.42;1.98;;;;;;;4.80;100.00;93491.28;2106304;28;20028;-80
2023/12/27 01:14:51;;;;;;;5.07;1.80;;;;;;;4.58;100.00;93484.34;2101075;28;20732;-79
2023/12/27 01:15:52;;;;;;;3.97;2.05;;;;;;;4.81;100.00;93490.16;2098337;28;20032;-81
2023/12/27 01:16:53;;;;;;;2.58;1.98;;;;;;;4.78;100.00;93494.31;2103045;28;20031;-80
2023/12/27 01:17:54;;;;;;;3.17;2.03;;;;;;;4.79;100.00;93489.78;2097061;28;20461;-80
2023/12/27 01:18:55;;;;;;;4.78;2.15;;;;;;;4.64;100.00;93483.59;2105270;28;20031;-79
2023/12/27 01:19:56;;;;;;;3.53;1.98;;;;;;;4.62;100.00;93483.22;2113789;28;20024;-79
2023/12/27 01:20:57;;;;;;;4.68;2.40;;;;;;;4.76;100.00;93493.16;2105314;28;20018;-78
2023/12/27 01:21:58;;;;;;;4.72;2.10;;;;;;;4.69;100.00;93485.16;2101083;28;20082;-77
2023/12/27 01:22:59;;;;;;;5.03;2.08;;;;;;;4.66;100.00;93491.19;2110023;28;20491;-79
2023/12/27 01:24:00;;;;;;;4.45;2.50;;;;;;;4.63;100.00;93490.03;2092848;28;20028;-80
2023/12/27 01:25:01;;;;;;;4.85;2.35;;;;;;;4.72;100.00;93497.66;2105524;28;20687;-79
2023/12/27 01:26:02;;;;;;;3.90;2.17;;;;;;;4.82;100.00;93488.25;2114548;28;20440;-78
2023/12/27 01:27:04;;;;;;;3.65;2.25;;;;;;;4.72;100.00;93492.38;2122409;27;20034;-78
2023/12/27 01:28:05;;;;;;;4.07;2.53;;;;;;;4.48;100.00;93486.53;2105437;28;20032;-80
2023/12/27 01:29:05;;;;;;;2.90;1.98;;;;;;;4.53;100.00;93491.50;2089504;28;20024;-80
2023/12/27 01:30:07;;;;;;;3.63;2.45;;;;;;;4.49;100.00;93487.31;2098412;28;20040;-78
2023/12/27 01:31:11;;;;;;;3.58;2.35;;;;;;;4.40;100.00;93487.63;2113390;28;20026;-79
2023/12/27 01:32:12;;;;;;;3.30;2.08;;;;;;;4.41;100.00;93491.03;2105076;28;20031;-79
2023/12/27 01:33:13;;;;;;;3.92;2.30;;;;;;;4.43;100.00;93491.41;2096988;28;20841;-79
2023/12/27 01:34:13;;;;;;;4.88;2.42;;;;;;;4.34;100.00;93494.34;2110682;28;20024;-79
2023/12/27 01:35:15;;;;;;;3.28;2.40;;;;;;;4.27;100.00;93494.31;2113451;28;20068;-80
2023/12/27 01:36:19;;;;;;;4.07;2.58;;;;;;;4.24;100.00;93489.75;2102391;28;20016;-80
2023/12/27 01:37:20;;;;;;;7.55;2.80;;;;;;;4.28;100.00;93487.91;2105140;28;20558;-79
2023/12/27 01:38:21;;;;;;;5.60;2.47;;;;;;;4.16;100.00;93488.16;2115849;27;20054;-79
2023/12/27 01:39:22;;;;;;;3.05;1.92;;;;;;;4.11;100.00;93493.78;2098296;28;20040;-79
2023/12/27 01:40:23;;;;;;;3.80;2.40;;;;;;;4.12;100.00;93484.72;2097412;28;20044;-79
2023/12/27 01:41:27;;;;;;;3.92;2.70;;;;;;;4.20;100.00;93491.59;2097683;28;20095;-79
2023/12/27 01:42:28;;;;;;;5.45;2.47;;;;;;;4.21;100.00;93493.13;2113917;28;20426;-78
2023/12/27 01:43:29;;;;;;;4.95;2.45;;;;;;;4.22;100.00;93487.47;2095791;28;20036;-79
2023/12/27 01:44:30;;;;;;;4.68;2.80;;;;;;;4.25;100.00;93485.97;2113738;28;20106;-78
2023/12/27 01:45:30;;;;;;;3.65;2.13;;;;;;;4.13;100.00;93486.28;2113198;28;20644;-81
2023/12/27 01:46:39;;;;;;;5.30;2.38;;;;;;;3.95;100.00;93491.38;2119077;27;20023;-80
2023/12/27 01:47:41;;;;;;;6.20;2.40;;;;;;;4.01;100.00;93485.41;2119223;27;20087;-81
2023/12/27 01:48:43;;;;;;;6.03;2.40;;;;;;;4.03;100.00;93485.78;2109679;28;20031;-79
2023/12/27 01:49:44;;;;;;;3.83;1.95;;;;;;;3.95;100.00;93492.16;2097616;28;20025;-80
2023/12/27 01:50:45;;;;;;;2.90;2.20;;;;;;;3.99;100.00;93486.88;2105435;28;20872;-80
2023/12/27 01:51:46;;;;;;;3.35;2.30;;;;;;;3.87;100.00;93480.00;2113613;28;20023;-79
2023/12/27 01:52:47;;;;;;;4.75;2.40;;;;;;;3.74;100.00;93482.13;2106086;28;20503;-80
2023/12/27 01:53:49;;;;;;;2.92;2.00;;;;;;;3.71;100.00;93485.50;2088690;28;20067;-80
2023/12/27 01:54:50;;;;;;;3.17;2.20;;;;;;;3.67;100.00;93479.41;2088789;28;20481;-79
2023/12/27 01:55:52;;;;;;;7.40;3.30;;;;;;;3.63;100.00;93483.13;2105217;28;20110;-78
2023/12/27 01:56:53;;;;;;;2.80;2.08;;;;;;;3.62;100.00;93482.38;2109895;28;20054;-80
2023/12/27 01:57:54;;;;;;;4.63;2.45;;;;;;;3.67;100.00;93483.94;2092557;28;20021;-79
2023/12/27 01:58:56;;;;;;;4.25;2.25;;;;;;;3.59;100.00;93477.06;2092756;28;20802;-79
2023/12/27 01:59:56;;;;;;;3.80;2.30;;;;;;;3.59;100.00;93477.06;2101114;28;20032;-78
2023/12/27 02:00:58;;;;;;;3.38;2.20;;;;;;;3.66;100.00;93482.41;2101087;28;20102;-78
2023/12/27 02:01:59;;;;;;;3.88;1.90;;;;;;;3.78;100.00;93480.28;2093446;28;20059;-77
2023/12/27 02:03:00;;;;;;;3.80;1.98;;;;;;;3.67;100.00;93478.66;2089328;28;20497;-78
2023/12/27 02:04:01;;;;;;;3.13;2.00;;;;;;;3.41;100.00;93482.91;2103553;28;20028;-80
2023/12/27 02:05:02;;;;;;;5.72;2.10;;;;;;;3.67;100.00;93476.75;2102877;28;20051;-80
2023/12/27 02:06:04;;;;;;;3.70;2.15;;;;;;;3.70;100.00;93485.88;2091324;28;20524;-79
2023/12/27 02:07:06;;;;;;;4.82;2.15;;;;;;;3.66;100.00;93482.41;2099943;28;20042;-80
2023/12/27 02:08:10;;;;;;;5.57;2.40;;;;;;;3.79;100.00;93481.03;2089175;28;20029;-80
2023/12/27 02:09:11;;;;;;;4.43;2.30;;;;;;;3.80;100.00;93479.91;2097248;28;20028;-80
2023/12/27 02:10:12;;;;;;;5.40;2.35;;;;;;;3.75;100.00;93478.34;2105454;28;20494;-79
2023/12/27 02:11:13;;;;;;;6.60;2.47;;;;;;;3.72;100.00;93484.38;2105500;28;20020;-79
2023/12/27 02:12:24;;;;;;;3.30;2.15;;;;;;;3.69;100.00;93473.78;2110485;28;20019;-78
2023/12/27 02:13:25;;;;;;;2.78;2.15;;;;;;;3.41;100.00;93482.91;2099031;28;20020;-79
2023/12/27 02:14:26;;;;;;;4.47;2.22;;;;;;;3.42;100.00;93473.84;2102435;28;20454;-79
2023/12/27 02:15:27;;;;;;;5.22;2.60;;;;;;;3.41;100.00;93474.97;2105271;28;20028;-78
2023/12/27 02:16:28;;;;;;;4.40;2.20;;;;;;;3.11;100.00;93475.00;2109175;28;20069;-79
2023/12/27 02:17:29;;;;;;;5.00;2.25;;;;;;;3.27;100.00;93466.91;2113522;28;20026;-78
2023/12/27 02:18:30;;;;;;;3.17;2.13;;;;;;;3.26;100.00;93473.31;2113758;28;20102;-79
2023/12/27 02:19:31;;;;;;;4.22;2.25;;;;;;;3.43;100.00;93472.75;2113158;28;20027;-79
2023/12/27 02:20:33;;;;;;;3.45;2.10;;;;;;;3.50;100.00;93464.13;2113351;28;20830;-78
2023/12/27 02:21:34;;;;;;;4.78;2.47;;;;;;;3.45;100.00;93459.16;2104903;28;20036;-79
2023/12/27 02:22:37;;;;;;;2.30;1.90;;;;;;;3.42;100.00;93452.72;2087696;28;20489;-80
2023/12/27 02:23:41;;;;;;;4.07;2.28;;;;;;;3.41;100.00;93461.78;2092358;28;20029;-80
2023/12/27 02:24:42;;;;;;;1.85;1.67;;;;;;;3.56;100.00;93459.28;2110737;28;20223;-79
2023/12/27 02:25:44;;;;;;;3.85;1.90;;;;;;;3.58;100.00;93455.16;2112526;28;20047;-79
2023/12/27 02:26:45;;;;;;;4.63;2.40;;;;;;;3.54;100.00;93459.63;2115344;27;20126;-78
2023/12/27 02:27:46;;;;;;;4.00;2.10;;;;;;;3.32;100.00;93458.66;2106636;28;20117;-80
2023/12/27 02:28:47;;;;;;;3.13;2.00;;;;;;;3.40;100.00;93467.44;2092969;28;21734;-79
2023/12/27 02:29:48;;;;;;;2.55;1.83;;;;;;;3.16;100.00;93468.66;2098214;28;20062;-80
2023/12/27 02:30:53;;;;;;;3.78;1.92;;;;;;;3.17;100.00;93465.66;2115427;28;20722;-80
2023/12/27 02:31:54;;;;;;;2.17;1.75;;;;;;;3.17;100.00;93463.03;2109798;28;20032;-79
2023/12/27 02:32:55;;;;;;;2.35;1.92;;;;;;;3.00;100.00;93471.50;2104707;28;20762;-78
2023/12/27 02:33:56;;;;;;;3.97;2.38;;;;;;;2.84;100.00;93465.63;2112383;28;20383;-79
2023/12/27 02:34:57;;;;;;;2.67;1.85;;;;;;;2.93;100.00;93466.88;2113515;28;20028;-79
2023/12/27 02:35:58;;;;;;;2.67;1.95;;;;;;;2.86;100.00;93468.69;2097061;28;20028;-79
2023/12/27 02:36:59;;;;;;;2.55;1.70;;;;;;;2.87;100.00;93457.75;2096349;28;20029;-79
2023/12/27 02:38:00;;;;;;;3.60;1.73;;;;;;;2.77;100.00;93458.38;2096827;28;20028;-79
2023/12/27 02:39:02;;;;;;;4.68;2.03;;;;;;;2.86;100.00;93458.13;2120007;28;20019;-80
2023/12/27 02:40:03;;;;;;;2.70;1.65;;;;;;;2.65;100.00;93455.94;2103930;28;20114;-78
2023/12/27 02:41:04;;;;;;;4.10;2.17;;;;;;;2.70;100.00;93455.63;2111149;28;20043;-80
2023/12/27 02:42:05;;;;;;;4.90;2.10;;;;;;;2.79;100.00;93458.78;2110818;28;20030;-80
2023/12/27 02:43:06;;;;;;;4.25;2.00;;;;;;;2.89;100.00;93450.22;2114881;28;20051;-80
2023/12/27 02:44:07;;;;;;;2.30;1.85;;;;;;;2.88;100.00;93451.34;2115457;28;20023;-81
2023/12/27 02:45:08;;;;;;;3.40;2.22;;;;;;;2.72;100.00;93450.75;2121229;28;20144;-80
2023/12/27 02:46:09;;;;;;;3.60;1.95;;;;;;;2.76;100.00;93448.91;2109252;28;20035;-80
2023/12/27 02:47:10;;;;;;;4.10;1.83;;;;;;;2.86;100.00;93447.56;2113391;28;20043;-82
2023/12/27 02:48:11;;;;;;;6.40;2.10;;;;;;;2.81;100.00;93438.06;2122019;27;20026;-79
2023/12/27 02:49:12;;;;;;;4.88;2.13;;;;;;;2.80;100.00;93441.81;2105050;28;20027;-79
2023/12/27 02:50:12;;;;;;;3.38;1.90;;;;;;;2.79;100.00;93448.22;2097126;28;20021;-79
2023/12/27 02:51:13;;;;;;;3.65;2.00;;;;;;;2.77;100.00;93445.19;2096696;28;20110;-79
2023/12/27 02:52:16;;;;;;;3.45;1.67;;;;;;;2.74;100.00;93446.66;2097094;28;20407;-80
2023/12/27 02:53:17;;;;;;;2.85;1.70;;;;;;;2.76;100.00;93443.66;2097460;28;20028;-80
2023/12/27 02:54:18;;;;;;;3.17;1.80;;;;;;;2.73;100.00;93441.75;2103890;28;20550;-82
2023/12/27 02:55:19;;;;;;;3.30;2.08;;;;;;;2.73;100.00;93439.09;2095797;28;20518;-80
2023/12/27 02:56:21;;;;;;;4.40;1.77;;;;;;;2.73;100.00;93437.22;2104964;28;20016;-79
2023/12/27 02:57:22;;;;;;;2.47;1.60;;;;;;;2.56;100.00;93436.97;2104098;28;20089;-80
2023/12/27 02:58:23;;;;;;;5.22;1.90;;;;;;;2.53;100.00;93443.72;2110029;28;20070;-79
2023/12/27 02:59:24;;;;;;;3.30;2.20;;;;;;;2.57;100.00;93439.25;2113098;28;20027;-80
2023/12/27 03:00:25;;;;;;;3.72;2.30;;;;;;;2.61;100.00;93437.44;2104629;28;20024;-80
2023/12/27 03:01:29;;;;;;;2.25;1.75;;;;;;;2.58;100.00;93430.22;2113660;28;20069;-80
2023/12/27 03:02:30;;;;;;;5.28;1.90;;;;;;;2.59;100.00;93430.97;2105215;28;20050;-80
2023/12/27 03:03:31;;;;;;;4.20;1.77;;;;;;;2.57;100.00;93433.22;2104725;28;20113;-79
2023/12/27 03:04:32;;;;;;;2.83;1.40;;;;;;;2.56;100.00;93434.34;2096409;28;20039;-79
2023/12/27 03:05:32;;;;;;;3.13;1.73;;;;;;;2.59;100.00;93434.41;2088318;28;20032;-80
2023/12/27 03:06:33;;;;;;;3.85;1.88;;;;;;;2.59;100.00;93436.25;2088299;28;20028;-80
2023/12/27 03:07:34;;;;;;;2.42;2.00;;;;;;;2.44;100.00;93432.66;2104305;28;20032;-81
2023/12/27 03:08:37;;;;;;;1.92;1.77;;;;;;;2.41;100.00;93428.09;2114342;28;20019;-82
2023/12/27 03:09:38;;;;;;;3.92;1.92;;;;;;;2.41;100.00;93426.22;2112979;28;20460;-79
2023/12/27 03:10:38;;;;;;;2.65;1.75;;;;;;;2.35;100.00;93422.38;2121846;28;20020;-79
2023/12/27 03:11:39;;;;;;;5.35;1.90;;;;;;;2.21;100.00;93420.31;2100172;28;20021;-80
2023/12/27 03:12:40;;;;;;;3.67;1.73;;;;;;;2.39;100.00;93414.50;2113352;27;20028;-79
2023/12/27 03:13:41;;;;;;;1.92;1.52;;;;;;;2.38;100.00;93416.41;2114150;28;20039;-80
2023/12/27 03:14:42;;;;;;;3.78;1.80;;;;;;;2.27;100.00;93410.19;2088926;28;20466;-79
2023/12/27 03:15:43;;;;;;;3.47;1.60;;;;;;;2.29;100.00;93407.97;2103162;28;20070;-80
2023/12/27 03:16:46;;;;;;;6.65;1.98;;;;;;;2.40;100.00;93405.47;2099154;28;20023;-79
2023/12/27 03:17:47;;;;;;;2.35;1.63;;;;;;;2.13;100.00;93415.28;2103326;28;20853;-79
2023/12/27 03:18:48;;;;;;;3.70;1.58;;;;;;;2.37;100.00;93406.19;2113040;28;20045;-81
2023/12/27 03:19:49;;;;;;;3.65;1.67;;;;;;;2.34;100.00;93415.59;2113368;28;20058;-78
2023/12/27 03:20:49;;;;;;;3.25;1.80;;;;;;;2.15;100.00;93407.75;2113036;28;20560;-79
2023/12/27 03:21:50;;;;;;;3.00;1.63;;;;;;;2.12;100.00;93411.13;2104765;28;20050;-78
2023/12/27 03:22:51;;;;;;;3.65;1.80;;;;;;;2.16;100.00;93411.94;2113340;28;20023;-80
2023/12/27 03:23:52;;;;;;;1.73;1.50;;;;;;;2.09;100.00;93414.47;2104867;28;20035;-80
2023/12/27 03:24:53;;;;;;;1.95;1.50;;;;;;;2.13;100.00;93407.38;2104932;28;20059;-79
2023/12/27 03:25:54;;;;;;;3.45;1.60;;;;;;;1.96;100.00;93421.78;2105545;28;20051;-77
2023/12/27 03:26:55;;;;;;;2.63;1.40;;;;;;;2.07;100.00;93417.47;2096629;28;20043;-78
2023/12/27 03:27:56;;;;;;;3.15;1.55;;;;;;;2.09;100.00;93409.94;2104914;28;20615;-81
2023/12/27 03:28:57;;;;;;;1.90;1.60;;;;;;;2.05;100.00;93408.38;2106861;28;20051;-79
2023/12/27 03:29:58;;;;;;;1.90;1.63;;;;;;;2.06;100.00;93407.25;2102274;28;20457;-79
2023/12/27 03:30:59;;;;;;;2.42;1.77;;;;;;;2.06;100.00;93407.25;2097580;28;20034;-80
2023/12/27 03:32:00;;;;;;;3.42;1.90;;;;;;;1.99;100.00;93406.03;2098001;28;20030;-79
2023/12/27 03:33:02;;;;;;;2.50;1.50;;;;;;;2.09;100.00;93402.03;2106153;28;20024;-80
2023/12/27 03:34:03;;;;;;;2.95;1.80;;;;;;;2.08;100.00;93399.75;2105462;28;20472;-78
2023/12/27 03:35:03;;;;;;;6.60;1.80;;;;;;;2.14;100.00;93400.97;2098870;28;20025;-80
2023/12/27 03:36:05;;;;;;;1.77;1.50;;;;;;;2.14;100.00;93393.06;2102065;28;20032;-80
2023/12/27 03:37:07;;;;;;;3.08;1.58;;;;;;;2.07;100.00;93400.88;2115027;28;20019;-79
2023/12/27 03:38:08;;;;;;;2.63;1.77;;;;;;;2.07;100.00;93400.88;2107074;28;20051;-79
2023/12/27 03:39:09;;;;;;;1.90;1.40;;;;;;;2.03;100.00;93397.44;2097917;28;20024;-80
2023/12/27 03:40:10;;;;;;;2.15;1.60;;;;;;;2.05;100.00;93397.81;2098255;28;20504;-78
2023/12/27 03:41:11;;;;;;;4.75;1.63;;;;;;;2.10;100.00;93395.63;2109934;28;20500;-80
2023/12/27 03:42:14;;;;;;;4.07;1.85;;;;;;;2.01;100.00;93393.25;2114973;28;20027;-78
2023/12/27 03:43:16;;;;;;;4.30;1.92;;;;;;;2.06;100.00;93388.78;2117592;27;20072;-78
2023/12/27 03:44:16;;;;;;;2.90;1.58;;;;;;;2.00;100.00;93391.72;2119683;27;20073;-79
2023/12/27 03:45:18;;;;;;;1.75;1.60;;;;;;;1.98;100.00;93387.94;2114422;28;20023;-79
2023/12/27 03:46:18;;;;;;;2.30;1.70;;;;;;;1.98;100.00;93387.94;2109410;28;20024;-80
2023/12/27 03:47:20;;;;;;;3.03;1.65;;;;;;;1.96;100.00;93383.00;2108718;28;20024;-80
2023/12/27 03:48:21;;;;;;;1.60;1.50;;;;;;;1.91;100.00;93387.84;2098166;28;20028;-80
2023/12/27 03:49:22;;;;;;;2.45;1.70;;;;;;;1.90;100.00;93381.81;2098566;28;20020;-79
2023/12/27 03:50:23;;;;;;;5.13;1.60;;;;;;;1.78;100.00;93392.53;2098160;28;20379;-80
2023/12/27 03:51:24;;;;;;;5.47;1.70;;;;;;;1.65;100.00;93389.31;2089936;28;20025;-80
2023/12/27 03:52:25;;;;;;;2.58;1.60;;;;;;;1.62;100.00;93397.16;2106994;28;20100;-79
2023/12/27 03:53:27;;;;;;;5.00;1.45;;;;;;;1.79;100.00;93390.66;2106520;28;20077;-79
2023/12/27 03:54:28;;;;;;;2.10;1.70;;;;;;;1.88;100.00;93391.94;2098466;28;20086;-80
2023/12/27 03:55:29;;;;;;;1.85;1.40;;;;;;;1.73;100.00;93387.56;2096869;28;20024;-80
2023/12/27 03:56:29;;;;;;;1.55;1.20;;;;;;;1.71;100.00;93392.41;2089725;28;20029;-78
2023/12/27 03:57:31;;;;;;;4.13;1.48;;;;;;;1.79;100.00;93390.66;2088827;28;20033;-81
2023/12/27 03:58:33;;;;;;;2.10;1.48;;;;;;;1.71;100.00;93387.91;2081692;28;20393;-79
2023/12/27 03:59:38;;;;;;;1.83;1.60;;;;;;;1.67;100.00;93397.66;2098161;28;20502;-79
2023/12/27 04:00:39;;;;;;;3.30;1.23;;;;;;;1.73;100.00;93395.47;2098066;28;20408;-80
2023/12/27 04:01:40;;;;;;;2.85;1.48;;;;;;;1.85;100.00;93397.91;2100029;28;20086;-79
2023/12/27 04:02:41;;;;;;;4.05;1.20;;;;;;;1.95;100.00;93396.56;2113809;28;20073;-81
2023/12/27 04:03:42;;;;;;;3.65;1.25;;;;;;;1.95;100.00;93388.66;2113648;28;20023;-79
2023/12/27 04:04:46;;;;;;;2.45;1.20;;;;;;;2.07;100.00;93385.06;2017303;28;20028;-78
2023/12/27 04:05:47;;;;;;;3.20;1.60;;;;;;;1.89;100.00;93382.13;2008913;28;20793;-79
2023/12/27 04:06:48;;;;;;;3.42;1.23;;;;;;;1.77;100.00;93393.66;2026574;28;20036;-79
2023/12/27 04:07:49;;;;;;;2.25;1.60;;;;;;;1.98;100.00;93385.31;2033763;28;20032;-78
2023/12/27 04:08:50;;;;;;;2.10;1.67;;;;;;;1.98;100.00;93388.72;2040023;28;20075;-79
2023/12/27 04:09:51;;;;;;;2.38;1.58;;;;;;;1.99;100.00;93384.94;2030476;28;20052;-80
2023/12/27 04:10:52;;;;;;;2.55;1.45;;;;;;;2.01;100.00;93384.59;2047212;28;20047;-78
2023/12/27 04:11:55;;;;;;;3.35;1.30;;;;;;;1.89;100.00;93374.22;2065660;27;20028;-80
2023/12/27 04:12:57;;;;;;;3.30;1.40;;;;;;;1.77;100.00;93372.56;2056239;28;20035;-79
2023/12/27 04:13:58;;;;;;;2.58;1.33;;;;;;;1.63;100.00;93377.63;2071176;27;20113;-78
2023/12/27 04:14:59;;;;;;;1.88;1.40;;;;;;;1.70;100.00;93377.72;2090998;27;20092;-79
2023/12/27 04:15:59;;;;;;;2.63;1.27;;;;;;;1.66;100.00;93380.28;2090222;28;20034;-79
2023/12/27 04:17:02;;;;;;;2.38;1.38;;;;;;;1.58;100.00;93380.53;2090225;28;20031;-79
2023/12/27 04:18:07;;;;;;;4.10;1.65;;;;;;;1.63;100.00;93380.25;2094646;28;20082;-78
2023/12/27 04:19:08;;;;;;;2.78;2.17;;;;;;;1.65;100.00;93380.66;2091066;28;20111;-79
2023/12/27 04:20:09;;;;;;;1.38;1.27;;;;;;;1.72;100.00;93378.13;2089562;28;20024;-80
2023/12/27 04:21:11;;;;;;;1.90;1.60;;;;;;;1.88;100.00;93368.19;2097795;28;20567;-79
2023/12/27 04:22:12;;;;;;;2.20;1.73;;;;;;;1.64;100.00;93376.50;2106235;28;20019;-79
2023/12/27 04:23:13;;;;;;;3.60;1.73;;;;;;;1.80;100.00;93377.13;2114514;28;20019;-78
2023/12/27 04:24:14;;;;;;;1.52;1.40;;;;;;;1.91;100.00;93379.94;2114315;28;20476;-80
2023/12/27 04:25:15;;;;;;;2.13;1.33;;;;;;;1.91;100.00;93375.41;2114500;28;20483;-80
2023/12/27 04:26:16;;;;;;;2.08;1.70;;;;;;;1.97;100.00;93375.88;2114876;28;20023;-80
2023/12/27 04:27:17;;;;;;;2.70;1.50;;;;;;;1.84;100.00;93371.91;2106041;28;20020;-78
2023/12/27 04:28:18;;;;;;;3.28;1.70;;;;;;;1.85;100.00;93371.56;2098110;28;20116;-78
2023/12/27 04:29:19;;;;;;;3.28;1.60;;;;;;;1.87;100.00;93365.94;2097943;28;20405;-78
2023/12/27 04:30:20;;;;;;;5.15;1.85;;;;;;;1.73;100.00;93369.13;2106584;28;20028;-79
2023/12/27 04:31:23;;;;;;;4.82;2.17;;;;;;;1.84;100.00;93377.94;2114076;28;20479;-79
2023/12/27 04:32:24;;;;;;;5.53;1.58;;;;;;;1.75;100.00;93374.78;2105776;28;20055;-79
2023/12/27 04:33:25;;;;;;;1.92;1.65;;;;;;;1.87;100.00;93371.19;2088825;28;20020;-81
2023/12/27 04:34:26;;;;;;;2.88;1.88;;;;;;;1.90;100.00;93368.63;2104962;28;20051;-78
2023/12/27 04:35:27;;;;;;;4.18;1.60;;;;;;;2.00;100.00;93362.75;2110144;28;20431;-80
2023/12/27 04:36:28;;;;;;;2.05;1.80;;;;;;;1.98;100.00;93372.88;2089890;28;20029;-79
2023/12/27 04:37:29;;;;;;;2.47;1.65;;;;;;;1.74;100.00;93365.34;2101495;28;20032;-81
2023/12/27 04:38:30;;;;;;;2.80;1.80;;;;;;;1.74;100.00;93363.47;2108192;28;20405;-79
2023/12/27 04:39:31;;;;;;;3.33;1.80;;;;;;;1.79;100.00;93367.69;2099015;28;20039;-79
2023/12/27 04:40:32;;;;;;;2.97;2.00;;;;;;;1.68;100.00;93359.63;2091936;28;20108;-79
2023/12/27 04:41:33;;;;;;;1.83;1.63;;;;;;;1.86;100.00;93361.78;2092957;28;20162;-81
2023/12/27 04:42:34;;;;;;;3.63;2.20;;;;;;;1.68;100.00;93370.19;2095661;28;20040;-79
2023/12/27 04:43:36;;;;;;;3.08;2.30;;;;;;;1.75;100.00;93364.25;2104178;28;20024;-79
2023/12/27 04:44:36;;;;;;;4.63;2.20;;;;;;;1.69;100.00;93366.41;2034985;28;20028;-79
2023/12/27 04:45:38;;;;;;;5.15;2.35;;;;;;;1.83;100.00;93371.16;2018740;28;20077;-79
2023/12/27 04:46:39;;;;;;;3.83;1.95;;;;;;;1.90;100.00;93360.72;2037748;28;20054;-79
2023/12/27 04:47:40;;;;;;;2.97;2.08;;;;;;;1.90;100.00;93358.09;2035355;28;20035;-78
2023/12/27 04:48:40;;;;;;;2.95;2.17;;;;;;;1.99;100.00;93361.22;2049611;28;20034;-79